AirNav   Bose ProFlight Series 2 Headset
 
 1020 users online  

3J6 Davis Field Airport
Folkston, Georgia, USA

GOING TO FOLKSTON?


FAA INFORMATION EFFECTIVE 30 JANUARY 2020

Location

FAA Identifier: 3J6
Lat/Long: 30-47-46.9000N 082-01-41.4000W
30-47.781667N 082-01.690000W
30.7963611,-82.0281667
(estimated)
Elevation: 68 ft. / 21 m (estimated)
Variation: 03W (1985)
From city: 3 miles SW of FOLKSTON, GA
Time zone: UTC -5 (UTC -4 during Daylight Saving Time)
Zip code: 31537

Airport Operations

Airport use: Open to the public
Activation date: 11/1962
Control tower: no
ARTCC: JACKSONVILLE CENTER
FSS: MACON FLIGHT SERVICE STATION
NOTAMs facility: MCN (NOTAM-D service available)
Attendance: UNATNDD
Wind indicator: lighted
Segmented circle: yes
Lights: MIRL RY 18/36 PRESET LOW INTST DUSK-2030; AFTER 2030 ACTVT - CTAF.
Beacon: white-green (lighted land airport)
Operates sunset to sunrise.

Airport Communications

CTAF: 122.9

Nearby radio navigation aids

VOR radial/distance  VOR name  Freq  Var
TAYr060/32.2TAYLOR VORTAC112.9003W
SSIr247/33.6BRUNSWICK VORTAC109.8004W
VQQr352/(35.7)CECIL VOR117.9003W
CRGr319/38.3CRAIG VORTAC114.5003W
AYSr136/39.3WAYCROSS VORTAC110.2000E

Airport Services

Parking: tiedowns
Airframe service: NONE
Powerplant service: NONE
Bottled oxygen: NONE
Bulk oxygen: NONE

Runway Information

Runway 18/36

Dimensions: 2500 x 50 ft. / 762 x 15 m
Surface: asphalt, in good condition
Weight bearing capacity: 
Single wheel: 12.5
Runway edge lights: medium intensity
RUNWAY 18  RUNWAY 36
Latitude: 30-47.988333N30-47.575833N
Longitude: 082-01.685000W082-01.694833W
Traffic pattern: leftright
Displaced threshold: no650 ft.
Markings: basic, in good conditionbasic, in good condition
Obstructions: 19 ft. trees, 580 ft. from runway, 100 ft. left of centerline, 20:1 slope to clear42 ft. trees, 201 ft. from runway, 100 ft. left and right of centerline
+50 FT TREES 90 FT LEFT & RIGHT AT THLD

Airport Ownership and Management from official FAA records

Ownership: Publicly-owned
Owner: CHARLTON COUNTY
68 KINGSLAND DR. STE B
FOLKSTON, GA 31537
Phone 912-496-2549
Manager: HAMPTON RAULERSON
68 KINSLAND DR., STE B
FOLKSTON, GA 31537
Phone (912) 886-3260

Airport Operational Statistics

Aircraft based on the field: 5
Single engine airplanes: 5
    
Aircraft operations: avg 61/week *
62% local general aviation
31% transient general aviation
6% military
* for 12-month period ending 01 November 2017

Additional Remarks

LGTD 272 FT AGL TOWER 1000 FT WEST.
FOR CD CTC JACKSONVILLE APCH AT 904-741-0284.

Instrument Procedures

There are no published instrument procedures at 3J6.

Some nearby airports with instrument procedures:

KJAX - Jacksonville International Airport (25 nm SE)
4J1 - Brantley County Airport (25 nm N)
KFHB - Fernandina Beach Municipal Airport (31 nm E)
KAYS - Waycross-Ware County Airport (33 nm NW)
KHEG - Herlong Recreational Airport (33 nm S)
 
Loc | Ops | Rwys | IFR | FBO | Links
Com | Nav | Svcs | Stats | Notes
Area around 3J6 (Davis Field Airport)
 
Road maps at: MapQuest Bing Google
 
Aerial photo
WARNING: Photo may not be current or correct
Aerial photo of 3J6 (Davis Field Airport)
Do you have a better or more recent aerial photo of Davis Field Airport that you would like to share? If so, please send us your photo.

 
Sectional chart

 
Airport distance calculator
Flying to Davis Field Airport? Find the distance to fly.

From to 3J6

Sunrise and sunset
Times for 20-Feb-2020
 Local
(UTC-5)
 Zulu
(UTC)
Morning civil twilight06:4111:41
Sunrise07:0512:05
Sunset18:1923:19
Evening civil twilight18:4323:43

Current date and time
Zulu (UTC)  21-Feb-2020 01:37:47
Local (UTC-5)  20-Feb-2020 20:37:47
 
METAR
KJAX 
25nm SE 
210114Z 01010KT 10SM -RA FEW008 BKN012 OVC025 10/08 A3013 RMK AO2 P0001 T01000078
KFHB 
31nm E 
210115Z AUTO 01013G16KT 10SM -RA BKN007 OVC014 09/ A3014 RMK AO2 P0004 T0088////
KHEG 
33nm S 
210115Z AUTO 01010KT 8SM -DZ SCT010 OVC016 10/09 A3014 RMK AO2
KAYS 
33nm NW 
210115Z AUTO 04011KT 7SM DZ OVC007 07/04 A3017 RMK AO2 T00680043 TSNO
KVQQ 
36nm S 
210050Z 03010KT 07SM -RA OVC007 13/12 A3011
KCRG 
38nm SE 
210118Z 01014G20KT 10SM -RA OVC010 10/09 A3013 RMK AO2 P0003 T01000089
KSSI 
39nm NE 
210111Z AUTO 01014KT 10SM -RA BKN011 OVC030 08/06 A3015 RMK AO2 P0000 T00780056
KNIP 
39nm SE 
210053Z 02017G24KT 5SM RA BKN009 OVC017 12/09 A3012 RMK AO2 SLP193 P0007 T01220094
KBQK 
40nm NE 
210115Z AUTO 01008G15KT 10SM -RA BKN009 BKN015 OVC033 07/06 A3016 RMK AO2 T00660058
KNRB 
40nm SE 
210052Z 36016G28KT 5SM RA BKN009 11/09 A3011 RMK AO2 PK WND 01028/0046 RAB13 SLP196 P0004 T01060094 $
TAF
KJAX 
25nm SE 
202110Z 2021/2118 03008KT P6SM VCSH SCT009 BKN012 OVC025 TEMPO 2021/2023 5SM -SHRA BR BKN009 FM202300 02011G16KT P6SM -RA SCT006 OVC009 FM211000 35014G24KT P6SM BKN009 OVC012 FM211700 01017G27KT P6SM BKN015
NOTAMs
Click for the latest NOTAMs
NOTAMs are issued by the DoD/FAA and will open in a separate window not controlled by AirNav.

 

 
 

Would you like to see your business listed on this page?

 If your business provides an interesting product or service to pilots, flight crews, aircraft, or users of the Davis Field Airport, you should consider listing it here.  To start the listing process, click on the button below
 
Add a business
 

Other Pages about Davis Field Airport

Update a link
 
Copyright © AirNav, LLC. All rights reserved. Privacy Policy  Contact